createdAt,value
2019-06-20T00:00:31.883Z,94918.22
2019-06-20T00:03:03.327Z,94924.64
2019-06-20T00:05:34.992Z,94920.05
2019-06-20T00:08:06.435Z,94923.92
2019-06-20T00:10:38.104Z,94922.30
2019-06-20T00:13:09.680Z,94920.98
2019-06-20T00:15:41.504Z,94926.55
2019-06-20T00:18:13.245Z,94921.58
2019-06-20T00:20:46.025Z,94919.91
2019-06-20T00:23:17.593Z,94920.41
2019-06-20T00:25:49.058Z,94914.97
2019-06-20T00:28:20.493Z,94908.16
2019-06-20T00:30:52.316Z,94915.88
2019-06-20T00:33:23.653Z,94924.53
2019-06-20T00:35:55.372Z,94920.69
2019-06-20T00:38:26.858Z,94924.64
2019-06-20T00:40:58.689Z,94922.45
2019-06-20T00:43:29.866Z,94924.50
2019-06-20T00:46:01.500Z,94919.75
2019-06-20T00:48:33.047Z,94915.27
2019-06-20T00:51:04.397Z,94910.30
2019-06-20T00:53:35.584Z,94908.31
2019-06-20T00:56:07.642Z,94912.22
2019-06-20T00:58:39.045Z,94909.20
2019-06-20T01:01:10.597Z,94907.72
2019-06-20T01:03:41.832Z,94911.02
2019-06-20T01:06:13.228Z,94916.28
2019-06-20T01:08:44.488Z,94912.34
2019-06-20T01:11:15.801Z,94910.11
2019-06-20T01:13:47.145Z,94912.19
2019-06-20T01:16:18.657Z,94913.67
2019-06-20T01:18:50.167Z,94913.25
2019-06-20T01:21:21.699Z,94917.77
2019-06-20T01:23:53.281Z,94921.39
2019-06-20T01:26:25.034Z,94926.69
2019-06-20T01:28:57.806Z,94920.70
2019-06-20T01:31:29.395Z,94913.23
2019-06-20T01:34:00.740Z,94920.22
2019-06-20T01:36:32.002Z,94918.88
2019-06-20T01:39:03.564Z,94916.34
2019-06-20T01:41:35.486Z,94913.09
2019-06-20T01:44:06.777Z,94921.27
2019-06-20T01:46:38.071Z,94924.99
2019-06-20T01:49:09.552Z,94922.39
2019-06-20T01:51:40.944Z,94917.26
2019-06-20T01:54:12.415Z,94912.84
2019-06-20T01:56:43.947Z,94909.02
2019-06-20T01:59:15.421Z,94912.80
2019-06-20T02:01:47.010Z,94918.30
2019-06-20T02:04:18.394Z,94916.75
2019-06-20T02:06:50.126Z,94922.59
2019-06-20T02:09:21.728Z,94917.56
2019-06-20T02:11:53.163Z,94923.98
2019-06-20T02:14:24.534Z,94925.59
2019-06-20T02:16:56.334Z,94923.20
2019-06-20T02:19:27.591Z,94933.91
2019-06-20T02:21:59.271Z,94936.84
2019-06-20T02:24:30.783Z,94933.30
2019-06-20T02:27:02.327Z,94932.05
2019-06-20T02:29:33.505Z,94933.16
2019-06-20T02:32:04.826Z,94932.52
2019-06-20T02:34:36.310Z,94943.48
2019-06-20T02:37:07.529Z,94948.65
2019-06-20T02:39:39.456Z,94953.73
2019-06-20T02:42:11.288Z,94957.86
2019-06-20T02:44:43.049Z,94962.20
2019-06-20T02:47:14.776Z,94963.73
2019-06-20T02:49:46.013Z,94962.27
2019-06-20T02:52:17.758Z,94960.18
2019-06-20T02:54:49.814Z,94961.94
2019-06-20T02:57:21.294Z,94964.84
2019-06-20T02:59:52.690Z,94966.15
2019-06-20T03:02:24.171Z,94970.37
2019-06-20T03:04:55.316Z,94968.88
2019-06-20T03:07:26.558Z,94969.53
2019-06-20T03:09:58.077Z,94964.92
2019-06-20T03:12:29.395Z,94958.56
2019-06-20T03:15:01.719Z,94952.38
2019-06-20T03:17:33.131Z,94960.13
2019-06-20T03:20:04.982Z,94965.41
2019-06-20T03:22:36.431Z,94962.30
2019-06-20T03:25:07.932Z,94964.16
2019-06-20T03:27:39.333Z,94968.88
2019-06-20T03:30:11.397Z,94957.95
2019-06-20T03:32:42.874Z,94961.83
2019-06-20T03:35:14.269Z,94962.89
2019-06-20T03:37:45.504Z,94961.13
2019-06-20T03:40:16.742Z,94959.41
2019-06-20T03:42:47.969Z,94955.05
2019-06-20T03:45:19.606Z,94952.40
2019-06-20T03:47:51.065Z,94950.49
2019-06-20T03:50:22.400Z,94959.06
2019-06-20T03:53:03.134Z,94957.33
2019-06-20T03:55:34.854Z,94962.86
2019-06-20T03:58:06.370Z,94956.12
2019-06-20T04:00:37.847Z,94959.00
2019-06-20T04:03:09.275Z,94962.72
2019-06-20T04:05:40.826Z,94962.41
2019-06-20T04:08:13.470Z,94960.31
2019-06-20T04:10:44.714Z,94960.81
2019-06-20T04:13:16.125Z,94956.58
2019-06-20T04:15:47.634Z,94957.39
2019-06-20T04:18:19.099Z,94951.89
2019-06-20T04:20:50.536Z,94951.32
2019-06-20T04:23:22.175Z,94953.25
2019-06-20T04:25:53.676Z,94956.17
2019-06-20T04:28:24.914Z,94954.73
2019-06-20T04:30:56.379Z,94956.11
2019-06-20T04:33:27.810Z,94960.05
2019-06-20T04:35:59.576Z,94952.86
2019-06-20T04:38:30.745Z,94959.55
2019-06-20T04:41:02.366Z,94965.45
2019-06-20T04:43:33.615Z,94963.72
2019-06-20T04:46:28.820Z,94959.73
2019-06-20T04:49:00.402Z,94960.98
2019-06-20T04:51:31.758Z,94960.98
2019-06-20T04:54:02.975Z,94966.92
2019-06-20T04:56:34.280Z,94969.81
2019-06-20T04:59:05.686Z,94964.56
2019-06-20T05:01:36.786Z,94964.03
2019-06-20T05:04:08.460Z,94960.45
2019-06-20T05:06:41.302Z,94960.34
2019-06-20T05:09:12.872Z,94960.16
2019-06-20T05:11:44.255Z,94953.58
2019-06-20T05:14:15.465Z,94954.41
2019-06-20T05:16:47.002Z,94954.80
2019-06-20T05:19:18.649Z,94956.41
2019-06-20T05:21:49.962Z,94953.55
2019-06-20T05:24:21.506Z,94950.81
2019-06-20T05:26:52.792Z,94949.12
2019-06-20T05:29:24.325Z,94947.45
2019-06-20T05:31:55.487Z,94959.05
2019-06-20T05:34:27.371Z,94960.12
2019-06-20T05:36:58.514Z,94957.51
2019-06-20T05:39:29.603Z,94958.91
2019-06-20T05:42:00.821Z,94959.50
2019-06-20T05:44:32.271Z,94972.02
2019-06-20T05:47:12.416Z,94974.30
2019-06-20T05:49:37.102Z,94977.84
2019-06-20T05:52:08.275Z,94980.22
2019-06-20T05:54:39.904Z,94982.77
2019-06-20T05:57:10.925Z,94984.19
2019-06-20T05:59:42.157Z,94983.42
2019-06-20T06:02:13.582Z,94978.36
2019-06-20T06:04:44.900Z,94983.05
2019-06-20T06:07:16.173Z,94992.70
2019-06-20T06:09:47.251Z,94991.19
2019-06-20T06:12:18.435Z,94991.19
2019-06-20T06:14:49.728Z,94976.11
2019-06-20T06:17:21.156Z,94978.59
2019-06-20T06:19:52.190Z,94977.05
2019-06-20T06:22:23.190Z,94977.05
2019-06-20T06:24:54.415Z,94972.50
2019-06-20T06:27:25.686Z,94972.50
2019-06-20T06:29:57.137Z,94973.16
2019-06-20T06:32:39.584Z,94976.03
2019-06-20T06:35:01.493Z,94975.66
2019-06-20T06:37:32.981Z,94975.66
2019-06-20T06:40:05.990Z,94975.63
2019-06-20T06:42:37.160Z,94972.94
2019-06-20T06:45:09.303Z,94970.30
2019-06-20T06:47:40.715Z,94975.92
2019-06-20T06:50:13.243Z,94974.81
2019-06-20T06:52:44.487Z,94971.30
2019-06-20T06:55:16.784Z,94971.28
2019-06-20T06:57:48.058Z,94980.23
2019-06-20T07:00:19.785Z,94980.23
2019-06-20T07:02:51.381Z,94982.41
2019-06-20T07:05:23.234Z,94981.45
2019-06-20T07:07:54.674Z,94976.02
2019-06-20T07:10:26.204Z,94975.45
2019-06-20T07:12:57.162Z,94965.72
2019-06-20T07:15:28.897Z,94965.31
2019-06-20T07:18:00.337Z,94959.20
2019-06-20T07:20:32.797Z,94960.11
2019-06-20T07:23:03.990Z,94958.11
2019-06-20T07:25:35.021Z,94952.94
2019-06-20T07:28:06.486Z,94947.20
2019-06-20T07:30:38.171Z,94951.02
2019-06-20T07:33:09.277Z,94947.54
2019-06-20T07:35:41.967Z,94949.17
2019-06-20T07:38:13.351Z,94943.45
2019-06-20T07:40:44.528Z,94945.42
2019-06-20T07:43:15.518Z,94945.83
2019-06-20T07:46:01.565Z,94941.80
2019-06-20T07:48:19.910Z,94942.11
2019-06-20T07:50:51.406Z,94942.95
2019-06-20T07:53:22.835Z,94947.25
2019-06-20T07:55:54.386Z,94940.22
2019-06-20T07:58:25.660Z,94938.63
2019-06-20T08:00:56.897Z,94939.45
2019-06-20T08:03:28.726Z,94945.04
2019-06-20T08:06:00.106Z,94941.06
2019-06-20T08:08:32.169Z,94942.13
2019-06-20T08:11:03.449Z,94941.55
2019-06-20T08:13:34.707Z,94942.91
2019-06-20T08:16:05.999Z,94938.02
2019-06-20T08:18:37.452Z,94931.19
2019-06-20T08:21:08.645Z,94927.13
2019-06-20T08:23:39.688Z,94931.02
2019-06-20T08:26:10.945Z,94926.55
2019-06-20T08:28:42.165Z,94924.13
2019-06-20T08:31:13.292Z,94919.27
2019-06-20T08:33:44.559Z,94922.02
2019-06-20T08:36:15.740Z,94911.50
2019-06-20T08:38:46.922Z,94909.87
2019-06-20T08:41:18.017Z,94912.48
2019-06-20T08:43:48.954Z,94920.03
2019-06-20T08:46:19.987Z,94916.70
2019-06-20T08:48:51.414Z,94910.86
2019-06-20T08:51:22.489Z,94911.45
2019-06-20T08:53:55.734Z,94912.70
2019-06-20T08:56:26.380Z,94912.47
2019-06-20T08:58:58.477Z,94907.44
2019-06-20T09:01:29.908Z,94907.88
2019-06-20T09:06:32.402Z,94899.31
2019-06-20T09:09:04.539Z,94897.06
2019-06-20T09:11:36.231Z,94888.45
2019-06-20T09:14:07.337Z,94893.61
2019-06-20T09:16:38.478Z,94889.35
2019-06-20T09:19:09.637Z,94877.14
2019-06-20T09:21:41.138Z,94886.85
2019-06-20T09:24:12.041Z,94880.89
2019-06-20T09:26:43.610Z,94875.56
2019-06-20T09:29:15.127Z,94870.27
2019-06-20T09:31:46.554Z,94872.83
2019-06-20T09:34:18.375Z,94867.16
2019-06-20T09:36:51.942Z,94868.15
2019-06-20T09:39:23.079Z,94873.41
2019-06-20T09:41:54.418Z,94869.11
2019-06-20T09:44:25.590Z,94864.48
2019-06-20T09:46:58.204Z,94865.47
2019-06-20T09:49:29.748Z,94863.03
2019-06-20T09:52:00.980Z,94861.95
2019-06-20T09:54:32.218Z,94862.00
2019-06-20T09:57:03.527Z,94856.21
2019-06-20T09:59:34.772Z,94858.18
2019-06-20T10:02:06.421Z,94850.13
2019-06-20T10:04:37.537Z,94847.52
2019-06-20T10:07:09.059Z,94847.31
2019-06-20T10:09:40.459Z,94848.61
2019-06-20T10:12:12.560Z,94842.78
2019-06-20T10:14:45.469Z,94847.23
2019-06-20T10:17:22.415Z,94842.09
2019-06-20T10:19:54.103Z,94837.11
2019-06-20T10:22:25.662Z,94833.28
2019-06-20T10:24:58.059Z,94842.09
2019-06-20T10:27:29.375Z,94842.74
2019-06-20T10:30:13.373Z,94837.08
2019-06-20T10:32:34.908Z,94833.31
2019-06-20T10:35:06.691Z,94833.66
2019-06-20T10:37:38.952Z,94827.61
2019-06-20T10:40:10.683Z,94829.94
2019-06-20T10:42:41.912Z,94836.78
2019-06-20T10:45:13.746Z,94828.38
2019-06-20T10:47:45.745Z,94819.78
2019-06-20T10:50:19.684Z,94822.48
2019-06-20T10:52:51.852Z,94829.97
2019-06-20T10:55:24.323Z,94830.58
2019-06-20T10:57:55.647Z,94821.36
2019-06-20T11:00:31.564Z,94813.75
2019-06-20T11:03:00.643Z,94811.89
2019-06-20T11:05:31.836Z,94801.84
2019-06-20T11:08:03.095Z,94795.87
2019-06-20T11:10:34.700Z,94798.94
2019-06-20T11:13:06.244Z,94807.03
2019-06-20T11:15:38.951Z,94804.87
2019-06-20T11:18:10.617Z,94807.88
2019-06-20T11:20:42.748Z,94820.05
2019-06-20T11:23:14.106Z,94821.51
2019-06-20T11:25:46.652Z,94810.86
2019-06-20T11:28:17.975Z,94813.88
2019-06-20T11:30:59.613Z,94808.02
2019-06-20T11:33:23.669Z,94803.94
2019-06-20T11:35:54.949Z,94792.64
2019-06-20T11:38:26.598Z,94789.05
2019-06-20T11:40:58.004Z,94794.76
2019-06-20T11:43:29.498Z,94795.23
2019-06-20T11:46:00.712Z,94798.61
2019-06-20T11:48:32.087Z,94803.27
2019-06-20T11:51:03.228Z,94800.67
2019-06-20T11:53:35.305Z,94809.39
2019-06-20T11:56:07.434Z,94813.30
2019-06-20T11:58:39.079Z,94814.27
2019-06-20T12:01:10.959Z,94826.98
2019-06-20T12:03:42.545Z,94832.08
2019-06-20T12:06:13.831Z,94839.25
2019-06-20T12:08:46.775Z,94848.08
2019-06-20T12:11:18.100Z,94853.48
2019-06-20T12:13:49.722Z,94855.12
2019-06-20T12:16:20.614Z,94843.31
2019-06-20T12:18:51.840Z,94856.47
2019-06-20T12:21:23.117Z,94857.27
2019-06-20T12:23:54.281Z,94872.66
2019-06-20T12:26:25.311Z,94872.66
2019-06-20T12:28:56.727Z,94881.84
2019-06-20T12:31:27.951Z,94883.05
2019-06-20T12:33:58.857Z,94873.75
2019-06-20T12:36:30.202Z,94878.20
2019-06-20T12:39:01.413Z,94885.90
2019-06-20T12:41:34.113Z,94885.11
2019-06-20T12:44:05.269Z,94890.96
2019-06-20T12:46:36.345Z,94888.63
2019-06-20T12:49:07.440Z,94893.86
2019-06-20T12:51:39.098Z,94890.25
2019-06-20T12:54:11.398Z,94893.05
2019-06-20T12:56:43.937Z,94906.98
2019-06-20T12:59:15.451Z,94906.53
2019-06-20T13:01:48.863Z,94909.99
2019-06-20T13:04:19.478Z,94927.23
2019-06-20T13:06:51.031Z,94938.67
2019-06-20T13:09:22.716Z,94942.41
2019-06-20T13:11:54.356Z,94938.13
2019-06-20T13:14:25.700Z,94949.41
2019-06-20T13:16:57.268Z,94946.16
2019-06-20T13:19:28.962Z,94940.87
2019-06-20T13:22:00.171Z,94945.79
2019-06-20T13:24:31.732Z,94953.17
2019-06-20T13:27:03.056Z,94949.19
2019-06-20T13:29:34.355Z,94951.10
2019-06-20T13:32:05.639Z,94943.62
2019-06-20T13:34:38.027Z,94949.74
2019-06-20T13:37:09.752Z,94960.20
2019-06-20T13:39:41.705Z,94953.66
2019-06-20T13:42:14.439Z,94962.79
2019-06-20T13:44:45.353Z,94962.93
2019-06-20T13:47:16.577Z,94950.46
2019-06-20T13:49:50.101Z,94944.88
2019-06-20T13:52:21.455Z,94941.13
2019-06-20T13:54:53.015Z,94935.32
2019-06-20T13:57:24.227Z,94933.88
2019-06-20T13:59:55.589Z,94926.24
2019-06-20T14:02:26.646Z,94926.70
2019-06-20T14:04:57.845Z,94919.45
2019-06-20T14:07:29.409Z,94914.09
2019-06-20T14:10:00.444Z,94925.59
2019-06-20T14:12:31.780Z,94911.79
2019-06-20T14:15:03.143Z,94916.22
2019-06-20T14:17:34.565Z,94915.11
2019-06-20T14:20:08.284Z,94892.87
2019-06-20T14:22:39.069Z,94891.34
2019-06-20T14:25:10.803Z,94880.54
2019-06-20T14:27:42.342Z,94886.98
2019-06-20T14:30:14.779Z,94883.34
2019-06-20T14:32:47.227Z,94885.11
2019-06-20T14:35:18.761Z,94883.23
2019-06-20T14:37:51.582Z,94882.39
2019-06-20T14:40:23.327Z,94883.05
2019-06-20T14:42:54.849Z,94883.12
2019-06-20T14:45:25.997Z,94891.92
2019-06-20T14:47:57.437Z,94879.17
2019-06-20T14:50:28.826Z,94885.27
2019-06-20T14:53:00.002Z,94885.27
2019-06-20T14:55:31.116Z,94889.45
2019-06-20T14:58:01.961Z,94893.38
2019-06-20T15:00:33.451Z,94893.38
2019-06-20T15:03:04.992Z,94891.61
2019-06-20T15:05:36.072Z,94905.85
2019-06-20T15:08:06.949Z,94907.89
2019-06-20T15:10:38.331Z,94909.47
2019-06-20T15:13:09.664Z,94908.33
2019-06-20T15:15:40.837Z,94904.96
2019-06-20T15:18:12.016Z,94902.69
2019-06-20T15:20:42.969Z,94903.27
2019-06-20T15:23:14.267Z,94905.66
2019-06-20T15:25:46.977Z,94901.84
2019-06-20T15:28:18.641Z,94905.75
2019-06-20T15:30:50.837Z,94906.23
2019-06-20T15:36:49.779Z,94901.49
2019-06-20T15:39:21.532Z,94900.05
2019-06-20T15:41:54.084Z,94893.66
2019-06-20T15:44:25.584Z,94884.34
2019-06-20T15:46:56.463Z,94884.31
2019-06-20T15:49:27.850Z,94872.01
2019-06-20T15:51:59.321Z,94868.41
2019-06-20T15:54:30.633Z,94870.55
2019-06-20T15:57:01.858Z,94875.51
2019-06-20T15:59:32.770Z,94869.73
2019-06-20T16:02:07.192Z,94869.73
2019-06-20T16:04:38.786Z,94877.02
2019-06-20T16:07:10.516Z,94868.45
2019-06-20T16:09:41.760Z,94858.05
2019-06-20T16:12:13.351Z,94856.09
2019-06-20T16:14:46.435Z,94862.01
2019-06-20T16:17:17.599Z,94866.56
2019-06-20T16:19:49.326Z,94873.05
2019-06-20T16:22:20.657Z,94871.83
2019-06-20T16:24:51.988Z,94869.86
2019-06-20T16:27:25.043Z,94876.89
2019-06-20T16:29:56.177Z,94875.37
2019-06-20T16:32:29.600Z,94876.06
2019-06-20T16:35:00.674Z,94887.21
2019-06-20T16:37:33.671Z,94891.66
2019-06-20T16:40:05.619Z,94888.99
2019-06-20T16:42:37.215Z,94891.89
2019-06-20T16:45:10.670Z,94887.55
2019-06-20T16:47:41.855Z,94892.76
2019-06-20T16:50:13.292Z,94892.76
2019-06-20T16:52:45.471Z,94889.45
2019-06-20T16:55:16.627Z,94890.27
2019-06-20T16:57:48.141Z,94890.27
2019-06-20T17:00:21.206Z,94891.95
2019-06-20T17:02:52.692Z,94889.01
2019-06-20T17:05:24.056Z,94892.64
2019-06-20T17:07:55.428Z,94894.05
2019-06-20T17:10:26.816Z,94889.77
2019-06-20T17:12:59.937Z,94889.77
2019-06-20T17:15:31.359Z,94882.53
2019-06-20T17:18:02.628Z,94888.65
2019-06-20T17:20:33.557Z,94888.65
2019-06-20T17:23:04.995Z,94890.42
2019-06-20T17:25:36.157Z,94890.42
2019-06-20T17:28:07.343Z,94903.52
2019-06-20T17:30:38.494Z,94903.52
2019-06-20T17:33:09.827Z,94904.72
2019-06-20T17:35:41.191Z,94913.50
2019-06-20T17:38:12.682Z,94910.74
2019-06-20T17:40:44.303Z,94910.74
2019-06-20T17:43:15.497Z,94905.61
2019-06-20T17:45:46.839Z,94892.62
2019-06-20T17:48:18.051Z,94911.01
2019-06-20T17:50:49.191Z,94906.31
2019-06-20T17:53:20.499Z,94905.51
2019-06-20T17:55:51.768Z,94891.89
2019-06-20T17:58:22.875Z,94893.90
2019-06-20T18:00:54.391Z,94893.90
2019-06-20T18:03:25.878Z,94892.20
2019-06-20T18:05:57.167Z,94892.20
2019-06-20T18:08:28.435Z,94885.43
2019-06-20T18:10:59.697Z,94885.95
2019-06-20T18:13:32.351Z,94883.09
2019-06-20T18:16:03.618Z,94883.34
2019-06-20T18:18:35.010Z,94890.84
2019-06-20T18:21:06.306Z,94883.78
2019-06-20T18:23:37.608Z,94882.58
2019-06-20T18:26:08.704Z,94894.92
2019-06-20T18:28:40.008Z,94894.92
2019-06-20T18:31:11.341Z,94911.06
2019-06-20T18:33:42.763Z,94911.06
2019-06-20T18:36:13.965Z,94919.97
2019-06-20T18:38:45.581Z,94929.58
2019-06-20T18:41:16.725Z,94946.11
2019-06-20T18:43:48.017Z,94946.11
2019-06-20T18:46:19.198Z,94947.58
2019-06-20T18:48:50.895Z,94945.96
2019-06-20T18:51:22.997Z,94949.41
2019-06-20T18:53:55.374Z,94951.20
2019-06-20T18:56:26.825Z,94956.20
2019-06-20T18:58:58.258Z,94953.47
2019-06-20T19:01:29.290Z,94953.90
2019-06-20T19:04:00.486Z,94954.27
2019-06-20T19:06:35.867Z,94959.42
2019-06-20T19:09:07.155Z,94964.80
2019-06-20T19:11:39.253Z,94977.95
2019-06-20T19:14:12.752Z,94973.27
2019-06-20T19:16:43.494Z,94988.04
2019-06-20T19:19:14.413Z,94979.63
2019-06-20T19:21:45.773Z,94994.97
2019-06-20T19:24:16.811Z,94984.79
2019-06-20T19:26:48.010Z,94989.78
2019-06-20T19:29:19.137Z,94994.91
2019-06-20T19:31:50.343Z,95000.67
2019-06-20T19:34:23.178Z,95011.11
2019-06-20T19:36:54.006Z,95010.41
2019-06-20T19:39:26.668Z,95015.02
2019-06-20T19:41:57.619Z,95016.17
2019-06-20T19:44:28.653Z,95013.28
2019-06-20T19:46:59.823Z,95017.08
2019-06-20T19:49:31.169Z,95009.25
2019-06-20T19:52:02.127Z,95011.31
2019-06-20T19:54:33.389Z,95014.31
2019-06-20T19:57:04.568Z,95010.78
2019-06-20T19:59:35.519Z,95009.42
2019-06-20T20:02:06.688Z,95020.12
2019-06-20T20:04:37.740Z,95025.35
2019-06-20T20:07:08.803Z,95025.45
2019-06-20T20:09:39.767Z,95035.18
2019-06-20T20:12:10.731Z,95039.95
2019-06-20T20:14:41.748Z,95042.84
2019-06-20T20:17:12.894Z,95031.92
2019-06-20T20:19:43.716Z,95032.48
2019-06-20T20:22:14.897Z,95033.56
2019-06-20T20:24:46.156Z,95022.60
2019-06-20T20:27:17.422Z,95025.45
2019-06-20T20:29:48.438Z,95027.48
2019-06-20T20:32:19.477Z,95028.98
2019-06-20T20:34:50.588Z,95037.44
2019-06-20T20:37:21.741Z,95036.02
2019-06-20T20:39:52.618Z,95038.14
2019-06-20T20:42:23.828Z,95029.52
2019-06-20T20:44:55.193Z,95034.81
2019-06-20T20:47:28.591Z,95033.46
2019-06-20T20:50:00.794Z,95034.20
2019-06-20T20:52:31.805Z,95032.65
2019-06-20T20:55:02.804Z,95030.22
2019-06-20T20:57:33.738Z,95031.25
2019-06-20T21:00:05.853Z,95028.62
2019-06-20T21:02:38.209Z,95029.62
2019-06-20T21:05:09.220Z,95024.84
2019-06-20T21:07:40.476Z,95025.06
2019-06-20T21:10:12.388Z,95023.92
2019-06-20T21:12:43.944Z,95024.31
2019-06-20T21:15:15.463Z,95021.80
2019-06-20T21:17:46.905Z,95015.70
2019-06-20T21:20:18.296Z,95013.45
2019-06-20T21:22:49.602Z,95007.06
2019-06-20T21:25:21.445Z,95008.17
2019-06-20T21:27:52.582Z,95004.20
2019-06-20T21:30:24.027Z,95013.57
2019-06-20T21:32:55.292Z,95016.00
2019-06-20T21:35:26.523Z,95023.71
2019-06-20T21:37:58.061Z,95022.73
2019-06-20T21:40:29.253Z,95030.64
2019-06-20T21:43:00.789Z,95027.38
2019-06-20T21:45:32.500Z,95023.55
2019-06-20T21:48:03.503Z,95024.31
2019-06-20T21:50:34.821Z,95025.55
2019-06-20T21:53:05.914Z,95020.34
2019-06-20T21:55:37.430Z,95020.05
2019-06-20T21:58:08.291Z,95004.80
2019-06-20T22:00:43.917Z,95000.66
2019-06-20T22:03:16.600Z,95007.05
2019-06-20T22:05:47.898Z,95005.11
2019-06-20T22:08:19.451Z,95002.59
2019-06-20T22:10:50.912Z,95006.69
2019-06-20T22:13:21.863Z,95007.86
2019-06-20T22:15:53.096Z,95015.16
2019-06-20T22:18:24.004Z,95025.84
2019-06-20T22:20:56.287Z,95042.53
2019-06-20T22:23:28.386Z,95036.10
2019-06-20T22:25:59.728Z,95030.01
2019-06-20T22:28:31.210Z,95032.77
2019-06-20T22:31:02.814Z,95036.81
2019-06-20T22:33:34.198Z,95042.77
2019-06-20T22:36:05.652Z,95044.09
2019-06-20T22:38:37.142Z,95046.64
2019-06-20T22:41:10.400Z,95046.34
2019-06-20T22:43:41.756Z,95046.05
2019-06-20T22:46:13.065Z,95042.30
2019-06-20T22:48:44.569Z,95038.13
2019-06-20T22:51:16.098Z,95033.66
2019-06-20T22:53:47.551Z,95037.61
2019-06-20T22:56:18.811Z,95048.17
2019-06-20T22:58:50.161Z,95051.30
2019-06-20T23:01:21.807Z,95052.86
2019-06-20T23:03:53.023Z,95057.03
2019-06-20T23:06:24.462Z,95057.53
2019-06-20T23:08:55.893Z,95046.93
2019-06-20T23:11:27.285Z,95049.34
2019-06-20T23:13:59.684Z,95058.52
2019-06-20T23:16:31.266Z,95054.17
2019-06-20T23:19:02.920Z,95051.26
2019-06-20T23:21:34.520Z,95038.01
2019-06-20T23:24:06.332Z,95040.41
2019-06-20T23:26:38.158Z,95037.77
2019-06-20T23:29:24.863Z,95045.34
2019-06-20T23:31:57.176Z,95032.30
2019-06-20T23:34:28.406Z,95028.65
2019-06-20T23:37:12.322Z,95028.48
2019-06-20T23:39:33.452Z,95025.23
2019-06-20T23:42:04.815Z,95021.59
2019-06-20T23:44:36.445Z,95016.72
2019-06-20T23:47:08.156Z,95019.70
2019-06-20T23:49:39.367Z,95016.76
2019-06-20T23:52:15.218Z,95020.64
2019-06-20T23:54:46.752Z,95023.58
2019-06-20T23:57:19.299Z,95031.86
2019-06-20T23:59:50.646Z,95030.08
